createdAt,value
2022-08-26T00:01:52.910Z,74.90
2022-08-26T00:04:21.645Z,83.80
2022-08-26T00:09:16.788Z,84.10
2022-08-26T00:11:45.573Z,76.70
2022-08-26T00:14:13.954Z,85.10
2022-08-26T00:16:47.525Z,84.70
2022-08-26T00:19:18.400Z,86.10
2022-08-26T00:21:48.683Z,86.70
2022-08-26T00:24:18.060Z,86.60
2022-08-26T00:26:45.470Z,87.20
2022-08-26T00:31:42.049Z,85.80
2022-08-26T00:34:11.237Z,88.10
2022-08-26T00:36:40.724Z,79.50
2022-08-26T00:39:08.681Z,89.30
2022-08-26T00:41:40.749Z,88.60
2022-08-26T00:44:10.445Z,89.30
2022-08-26T00:46:46.780Z,89.40
2022-08-26T00:49:36.092Z,89.20
2022-08-26T00:52:09.844Z,90.00
2022-08-26T00:54:47.029Z,90.00
2022-08-26T00:57:17.060Z,89.90
2022-08-26T00:59:57.567Z,90.10
2022-08-26T01:02:25.178Z,90.10
2022-08-26T01:04:57.705Z,83.90
2022-08-26T01:07:26.424Z,82.00
2022-08-26T01:09:55.086Z,89.60
2022-08-26T01:12:24.018Z,90.10
2022-08-26T01:14:52.551Z,81.70
2022-08-26T01:19:58.256Z,90.20
2022-08-26T01:22:55.400Z,83.20
2022-08-26T01:25:25.122Z,88.60
2022-08-26T01:27:53.322Z,84.80
2022-08-26T01:30:21.279Z,88.60
2022-08-26T01:32:50.601Z,92.00
2022-08-26T01:35:18.224Z,92.00
2022-08-26T01:37:48.107Z,84.20
2022-08-26T01:40:21.017Z,92.20
2022-08-26T01:42:49.247Z,92.20
2022-08-26T01:45:25.142Z,84.80
2022-08-26T01:47:56.653Z,84.90
2022-08-26T01:50:34.913Z,92.30
2022-08-26T01:53:06.118Z,92.30
2022-08-26T01:55:34.470Z,92.40
2022-08-26T01:58:06.500Z,92.70
2022-08-26T02:00:35.016Z,95.70
2022-08-26T02:03:17.118Z,85.90
2022-08-26T02:06:09.367Z,92.20
2022-08-26T02:08:45.471Z,86.40
2022-08-26T02:11:13.405Z,87.20
2022-08-26T02:13:44.237Z,86.80
2022-08-26T02:16:12.602Z,87.30
2022-08-26T02:18:41.787Z,87.20
2022-08-26T02:21:11.014Z,87.70
2022-08-26T02:23:39.063Z,88.50
2022-08-26T02:26:16.507Z,89.00
2022-08-26T02:28:51.398Z,89.80
2022-08-26T02:31:19.254Z,90.20
2022-08-26T02:36:22.684Z,91.00
2022-08-26T02:38:50.081Z,91.00
2022-08-26T02:41:19.031Z,90.70
2022-08-26T02:43:46.239Z,90.80
2022-08-26T02:46:13.282Z,91.10
2022-08-26T02:48:48.827Z,91.10
2022-08-26T02:51:15.798Z,90.80
2022-08-26T02:56:10.900Z,90.40
2022-08-26T02:58:37.812Z,90.80
2022-08-26T03:01:05.316Z,90.60
2022-08-26T03:03:32.995Z,90.20
2022-08-26T03:06:00.435Z,90.60
2022-08-26T03:08:27.456Z,90.10
2022-08-26T03:10:54.444Z,90.40
2022-08-26T03:15:49.183Z,90.30
2022-08-26T03:18:16.310Z,90.70
2022-08-26T03:20:43.198Z,91.00
2022-08-26T03:25:38.717Z,91.00
2022-08-26T03:28:05.657Z,91.70
2022-08-26T03:30:44.897Z,92.10
2022-08-26T03:33:14.042Z,91.70
2022-08-26T03:35:43.734Z,92.10
2022-08-26T03:38:11.551Z,91.90
2022-08-26T03:40:39.213Z,92.00
2022-08-26T03:43:09.861Z,92.30
2022-08-26T03:45:37.860Z,92.10
2022-08-26T03:48:05.524Z,92.40
2022-08-26T03:50:34.275Z,92.90
2022-08-26T03:53:03.837Z,93.50
2022-08-26T03:55:33.214Z,94.00
2022-08-26T03:58:00.826Z,94.30
2022-08-26T04:02:55.493Z,94.70
2022-08-26T04:05:23.775Z,94.70
2022-08-26T04:07:51.482Z,94.50
2022-08-26T04:10:22.206Z,94.60
2022-08-26T04:13:03.762Z,94.50
2022-08-26T04:15:30.900Z,95.10
2022-08-26T04:17:57.839Z,95.30
2022-08-26T04:20:25.492Z,95.20
2022-08-26T04:22:52.686Z,95.50
2022-08-26T04:25:20.609Z,95.80
2022-08-26T04:27:48.283Z,95.80
2022-08-26T04:30:16.695Z,95.90
2022-08-26T04:32:43.810Z,96.10
2022-08-26T04:35:10.771Z,95.90
2022-08-26T04:37:37.698Z,95.90
2022-08-26T04:40:06.301Z,95.60
2022-08-26T04:42:33.825Z,95.40
2022-08-26T04:45:01.668Z,95.80
2022-08-26T04:52:29.073Z,96.30
2022-08-26T04:54:57.971Z,96.80
2022-08-26T04:57:24.825Z,96.70
2022-08-26T05:02:20.346Z,96.30
2022-08-26T05:04:47.240Z,96.00
2022-08-26T05:07:14.110Z,95.80
2022-08-26T05:09:45.316Z,95.70
2022-08-26T05:12:12.234Z,95.50
2022-08-26T05:17:08.707Z,95.00
2022-08-26T05:19:37.154Z,94.70
2022-08-26T05:22:09.659Z,94.50
2022-08-26T05:27:11.474Z,94.40
2022-08-26T05:29:39.462Z,94.00
2022-08-26T05:32:07.596Z,93.20
2022-08-26T05:34:34.536Z,92.60
2022-08-26T05:41:58.239Z,91.50
2022-08-26T05:44:25.242Z,91.10
2022-08-26T05:49:20.386Z,91.00
2022-08-26T05:51:49.859Z,90.70
2022-08-26T05:54:22.147Z,90.60
2022-08-26T05:56:50.153Z,90.40
2022-08-26T05:59:17.023Z,90.50
2022-08-26T06:06:47.052Z,90.00
2022-08-26T06:09:14.203Z,90.00
2022-08-26T06:11:44.480Z,89.80
2022-08-26T06:14:11.770Z,90.10
2022-08-26T06:16:41.563Z,90.00
2022-08-26T06:19:10.606Z,89.00
2022-08-26T06:21:40.408Z,90.00
2022-08-26T06:24:29.035Z,86.50
2022-08-26T06:27:05.015Z,87.60
2022-08-26T06:29:34.617Z,86.90
2022-08-26T06:32:04.499Z,87.30
2022-08-26T06:37:02.780Z,86.00
2022-08-26T06:39:31.461Z,86.50
2022-08-26T06:42:00.246Z,84.40
2022-08-26T06:44:27.552Z,82.70
2022-08-26T06:49:25.861Z,82.70
2022-08-26T06:51:58.551Z,83.20
2022-08-26T06:54:26.732Z,83.10
2022-08-26T06:56:55.960Z,83.40
2022-08-26T06:59:23.300Z,83.00
2022-08-26T07:01:50.356Z,80.70
2022-08-26T07:04:20.223Z,80.40
2022-08-26T07:06:52.796Z,79.50
2022-08-26T07:09:23.986Z,79.40
2022-08-26T07:11:51.800Z,77.90
2022-08-26T07:14:21.357Z,78.50
2022-08-26T07:16:49.757Z,76.50
2022-08-26T07:19:30.339Z,75.80
2022-08-26T07:22:03.833Z,75.90
2022-08-26T07:24:35.918Z,73.90
2022-08-26T07:27:07.268Z,74.60
2022-08-26T07:29:37.234Z,73.30
2022-08-26T07:32:04.615Z,72.60
2022-08-26T07:34:33.388Z,72.70
2022-08-26T07:37:00.816Z,72.80
2022-08-26T07:39:27.961Z,71.90
2022-08-26T07:41:55.054Z,70.20
2022-08-26T07:44:22.603Z,71.30
2022-08-26T07:46:52.269Z,67.20
2022-08-26T07:49:24.496Z,67.70
2022-08-26T07:51:52.779Z,64.50
2022-08-26T07:54:20.067Z,66.40
2022-08-26T07:56:51.840Z,66.80
2022-08-26T07:59:19.210Z,67.10
2022-08-26T08:01:47.391Z,65.20
2022-08-26T08:04:15.971Z,64.80
2022-08-26T08:06:43.846Z,65.80
2022-08-26T08:09:14.897Z,68.70
2022-08-26T08:11:44.761Z,66.00
2022-08-26T08:14:12.720Z,67.00
2022-08-26T08:16:45.989Z,67.00
2022-08-26T08:19:14.785Z,63.90
2022-08-26T08:21:42.865Z,61.70
2022-08-26T08:24:11.214Z,61.50
2022-08-26T08:26:38.329Z,58.40
2022-08-26T08:29:08.435Z,56.70
2022-08-26T08:31:56.676Z,56.40
2022-08-26T08:34:24.649Z,57.70
2022-08-26T08:36:53.750Z,57.10
2022-08-26T08:39:22.332Z,58.80
2022-08-26T08:41:58.182Z,58.40
2022-08-26T08:47:03.938Z,56.40
2022-08-26T08:49:32.643Z,55.60
2022-08-26T08:52:13.853Z,54.70
2022-08-26T08:54:40.793Z,57.80
2022-08-26T08:57:20.694Z,57.10
2022-08-26T09:00:04.742Z,58.60
2022-08-26T09:03:07.071Z,56.30
2022-08-26T09:05:44.360Z,55.50
2022-08-26T09:08:28.462Z,53.80
2022-08-26T09:11:01.037Z,54.10
2022-08-26T09:13:29.304Z,50.90
2022-08-26T09:16:20.324Z,51.00
2022-08-26T09:19:04.896Z,50.70
2022-08-26T09:21:32.718Z,51.20
2022-08-26T09:24:00.305Z,50.50
2022-08-26T09:26:31.260Z,51.20
2022-08-26T09:29:03.798Z,50.80
2022-08-26T09:31:36.532Z,53.10
2022-08-26T09:34:12.898Z,49.70
2022-08-26T09:36:51.441Z,48.60
2022-08-26T09:39:25.068Z,49.20
2022-08-26T09:42:02.509Z,48.70
2022-08-26T09:44:30.614Z,50.50
2022-08-26T09:47:05.123Z,48.90
2022-08-26T09:49:38.346Z,49.50
2022-08-26T09:52:22.145Z,49.20
2022-08-26T09:55:03.703Z,49.40
2022-08-26T09:57:34.340Z,50.00
2022-08-26T10:00:02.418Z,47.50
2022-08-26T10:02:32.100Z,49.20
2022-08-26T10:05:09.275Z,49.40
2022-08-26T10:07:50.992Z,48.40
2022-08-26T10:10:32.093Z,48.00
2022-08-26T10:13:11.064Z,45.20
2022-08-26T10:16:16.155Z,44.30
2022-08-26T10:18:56.777Z,43.60
2022-08-26T10:21:42.693Z,44.10
2022-08-26T10:24:11.647Z,43.10
2022-08-26T10:27:06.058Z,42.80
2022-08-26T10:29:47.802Z,42.30
2022-08-26T10:32:29.325Z,42.80
2022-08-26T10:34:56.405Z,42.60
2022-08-26T10:37:27.702Z,44.70
2022-08-26T10:40:17.903Z,42.40
2022-08-26T10:43:14.473Z,43.60
2022-08-26T10:45:50.546Z,42.90
2022-08-26T10:48:39.885Z,42.10
2022-08-26T10:51:08.719Z,39.00
2022-08-26T10:53:42.588Z,41.30
2022-08-26T10:56:29.358Z,42.30
2022-08-26T10:59:12.435Z,42.00
2022-08-26T11:01:43.045Z,40.80
2022-08-26T11:04:20.412Z,40.90
2022-08-26T11:06:50.221Z,40.00
2022-08-26T11:09:46.771Z,40.90
2022-08-26T11:12:36.361Z,40.90
2022-08-26T11:15:10.334Z,38.90
2022-08-26T11:17:46.243Z,40.00
2022-08-26T11:20:41.781Z,40.30
2022-08-26T11:23:22.467Z,40.30
2022-08-26T11:26:01.049Z,39.80
2022-08-26T11:28:38.199Z,38.30
2022-08-26T11:31:10.175Z,40.50
2022-08-26T11:33:49.019Z,40.50
2022-08-26T11:36:41.694Z,37.90
2022-08-26T11:39:14.642Z,38.70
2022-08-26T11:41:47.619Z,38.90
2022-08-26T11:44:23.435Z,40.20
2022-08-26T11:47:00.790Z,41.20
2022-08-26T11:49:29.197Z,41.00
2022-08-26T11:52:22.123Z,38.70
2022-08-26T11:55:11.165Z,37.90
2022-08-26T11:57:46.538Z,38.10
2022-08-26T12:00:26.629Z,38.00
2022-08-26T12:02:55.729Z,37.10
2022-08-26T12:05:31.042Z,37.20
2022-08-26T12:08:07.327Z,38.30
2022-08-26T12:10:35.284Z,37.00
2022-08-26T12:13:04.430Z,37.40
2022-08-26T12:15:33.986Z,37.20
2022-08-26T12:18:29.629Z,36.30
2022-08-26T12:20:59.437Z,36.80
2022-08-26T12:23:36.474Z,37.40
2022-08-26T12:26:29.191Z,35.40
2022-08-26T12:28:57.458Z,35.50
2022-08-26T12:31:29.426Z,37.40
2022-08-26T12:33:59.736Z,37.90
2022-08-26T12:36:33.391Z,37.00
2022-08-26T12:39:30.524Z,37.00
2022-08-26T12:42:07.930Z,37.40
2022-08-26T12:44:58.731Z,37.60
2022-08-26T12:47:33.880Z,38.10
2022-08-26T12:50:18.916Z,38.50
2022-08-26T12:53:04.388Z,38.00
2022-08-26T12:55:51.295Z,37.30
2022-08-26T12:58:23.645Z,36.60
2022-08-26T13:00:55.413Z,35.60
2022-08-26T13:03:34.367Z,36.70
2022-08-26T13:06:15.966Z,36.50
2022-08-26T13:09:08.699Z,36.10
2022-08-26T13:11:55.615Z,37.10
2022-08-26T13:14:24.939Z,37.70
2022-08-26T13:16:53.394Z,37.80
2022-08-26T13:19:23.552Z,36.80
2022-08-26T13:21:56.456Z,36.90
2022-08-26T13:24:38.702Z,37.80
2022-08-26T13:27:07.742Z,37.70
2022-08-26T13:29:35.002Z,37.60
2022-08-26T13:32:03.749Z,38.80
2022-08-26T13:34:31.619Z,37.40
2022-08-26T13:36:59.343Z,37.00
2022-08-26T13:39:27.406Z,37.70
2022-08-26T13:41:54.954Z,36.90
2022-08-26T13:44:21.905Z,37.30
2022-08-26T13:46:49.232Z,36.90
2022-08-26T13:49:16.388Z,36.80
2022-08-26T13:51:43.372Z,37.10
2022-08-26T13:54:10.435Z,37.30
2022-08-26T13:56:37.644Z,37.00
2022-08-26T13:59:05.623Z,37.80
2022-08-26T14:01:34.804Z,36.90
2022-08-26T14:04:03.203Z,37.70
2022-08-26T14:06:30.459Z,37.00
2022-08-26T14:08:57.602Z,36.60
2022-08-26T14:11:25.172Z,36.90
2022-08-26T14:13:52.616Z,37.60
2022-08-26T14:16:29.225Z,38.40
2022-08-26T14:18:56.279Z,38.10
2022-08-26T14:21:25.176Z,38.60
2022-08-26T14:23:52.817Z,39.60
2022-08-26T14:26:28.088Z,39.40
2022-08-26T14:28:58.196Z,40.50
2022-08-26T14:31:27.164Z,41.30
2022-08-26T14:33:55.982Z,41.60
2022-08-26T14:36:29.151Z,41.50
2022-08-26T14:38:58.346Z,42.00
2022-08-26T14:41:25.566Z,42.60
2022-08-26T14:44:17.006Z,42.70
2022-08-26T14:46:47.397Z,42.00
2022-08-26T14:49:15.294Z,42.50
2022-08-26T14:51:42.671Z,42.70
2022-08-26T14:54:13.696Z,41.90
2022-08-26T14:56:47.362Z,42.30
2022-08-26T14:59:17.678Z,43.10
2022-08-26T15:01:45.603Z,43.40
2022-08-26T15:04:13.164Z,44.20
2022-08-26T15:06:40.907Z,44.40
2022-08-26T15:09:08.002Z,45.00
2022-08-26T15:11:35.041Z,44.30
2022-08-26T15:14:02.713Z,44.90
2022-08-26T15:16:30.213Z,45.20
2022-08-26T15:18:58.029Z,44.80
2022-08-26T15:21:26.440Z,43.20
2022-08-26T15:23:54.426Z,43.40
2022-08-26T15:26:23.207Z,43.60
2022-08-26T15:28:51.068Z,42.40
2022-08-26T15:31:20.227Z,42.40
2022-08-26T15:33:47.580Z,43.60
2022-08-26T15:36:15.248Z,43.50
2022-08-26T15:38:42.739Z,43.70
2022-08-26T15:41:10.500Z,44.20
2022-08-26T15:43:38.156Z,44.20
2022-08-26T15:46:10.500Z,44.10
2022-08-26T15:48:38.063Z,43.50
2022-08-26T15:51:06.217Z,43.70
2022-08-26T15:53:35.117Z,44.20
2022-08-26T15:56:02.636Z,44.80
2022-08-26T15:58:30.291Z,46.30
2022-08-26T16:00:57.726Z,44.70
2022-08-26T16:03:25.017Z,45.10
2022-08-26T16:05:52.104Z,45.00
2022-08-26T16:08:19.282Z,45.20
2022-08-26T16:10:50.564Z,45.60
2022-08-26T16:13:19.934Z,46.10
2022-08-26T16:15:48.399Z,45.50
2022-08-26T16:18:16.273Z,45.90
2022-08-26T16:20:55.279Z,46.10
2022-08-26T16:23:39.499Z,46.40
2022-08-26T16:26:11.630Z,46.10
2022-08-26T16:28:39.190Z,46.50
2022-08-26T16:31:07.393Z,46.70
2022-08-26T16:33:34.399Z,47.30
2022-08-26T16:36:01.657Z,46.90
2022-08-26T16:38:28.612Z,47.10
2022-08-26T16:40:55.881Z,47.50
2022-08-26T16:43:22.889Z,47.90
2022-08-26T16:45:49.898Z,47.30
2022-08-26T16:48:17.097Z,47.10
2022-08-26T16:50:44.064Z,47.80
2022-08-26T16:55:47.537Z,48.60
2022-08-26T16:58:15.306Z,49.00
2022-08-26T17:00:46.036Z,49.00
2022-08-26T17:03:13.489Z,49.30
2022-08-26T17:05:40.671Z,49.60
2022-08-26T17:08:07.989Z,50.80
2022-08-26T17:10:35.350Z,50.20
2022-08-26T17:13:02.657Z,49.80
2022-08-26T17:15:30.025Z,50.00
2022-08-26T17:17:57.428Z,50.20
2022-08-26T17:20:25.654Z,50.40
2022-08-26T17:22:54.745Z,50.60
2022-08-26T17:25:28.266Z,50.40
2022-08-26T17:30:27.283Z,51.20
2022-08-26T17:32:57.119Z,51.50
2022-08-26T17:35:24.856Z,51.60
2022-08-26T17:37:52.031Z,52.00
2022-08-26T17:40:22.196Z,52.50
2022-08-26T17:42:49.690Z,52.80
2022-08-26T17:45:17.937Z,53.60
2022-08-26T17:47:44.924Z,53.60
2022-08-26T17:50:14.641Z,54.60
2022-08-26T17:52:41.704Z,56.60
2022-08-26T17:55:11.237Z,58.80
2022-08-26T17:57:40.664Z,58.00
2022-08-26T18:00:13.500Z,58.00
2022-08-26T18:02:40.818Z,57.10
2022-08-26T18:05:09.218Z,61.90
2022-08-26T18:07:43.974Z,57.10
2022-08-26T18:10:13.534Z,58.10
2022-08-26T18:12:41.746Z,59.30
2022-08-26T18:15:10.644Z,59.10
2022-08-26T18:17:39.301Z,58.80
2022-08-26T18:20:09.562Z,57.30
2022-08-26T18:22:36.474Z,58.30
2022-08-26T18:25:05.161Z,58.20
2022-08-26T18:27:32.172Z,57.50
2022-08-26T18:29:59.109Z,58.80
2022-08-26T18:32:25.967Z,58.30
2022-08-26T18:34:53.304Z,57.70
2022-08-26T18:37:20.241Z,58.30
2022-08-26T18:39:47.139Z,57.90
2022-08-26T18:42:14.331Z,58.60
2022-08-26T18:44:41.211Z,58.70
2022-08-26T18:47:08.182Z,59.30
2022-08-26T18:49:35.226Z,59.20
2022-08-26T18:52:02.203Z,59.10
2022-08-26T18:54:30.022Z,59.40
2022-08-26T18:56:57.269Z,59.70
2022-08-26T18:59:30.257Z,60.00
2022-08-26T19:01:57.846Z,59.50
2022-08-26T19:04:25.148Z,60.10
2022-08-26T19:06:52.863Z,59.90
2022-08-26T19:09:20.252Z,60.30
2022-08-26T19:11:49.637Z,60.10
2022-08-26T19:14:17.276Z,60.50
2022-08-26T19:16:46.155Z,62.00
2022-08-26T19:19:14.829Z,61.60
2022-08-26T19:21:41.787Z,61.90
2022-08-26T19:24:15.453Z,62.00
2022-08-26T19:26:43.838Z,62.30
2022-08-26T19:29:11.589Z,62.20
2022-08-26T19:31:38.589Z,62.10
2022-08-26T19:34:05.848Z,62.30
2022-08-26T19:36:33.121Z,61.80
2022-08-26T19:39:03.216Z,62.00
2022-08-26T19:41:36.851Z,62.50
2022-08-26T19:44:09.321Z,61.90
2022-08-26T19:49:08.974Z,61.90
2022-08-26T19:51:36.665Z,62.00
2022-08-26T19:54:04.427Z,62.10
2022-08-26T19:56:31.910Z,61.90
2022-08-26T19:58:58.885Z,62.40
2022-08-26T20:01:25.889Z,63.00
2022-08-26T20:03:53.139Z,63.50
2022-08-26T20:06:20.408Z,63.70
2022-08-26T20:08:47.406Z,64.00
2022-08-26T20:11:19.001Z,64.30
2022-08-26T20:13:47.008Z,64.40
2022-08-26T20:16:14.958Z,64.60
2022-08-26T20:19:02.051Z,64.50
2022-08-26T20:21:33.225Z,64.80
2022-08-26T20:24:09.813Z,65.20
2022-08-26T20:26:38.764Z,66.00
2022-08-26T20:29:07.513Z,66.60
2022-08-26T20:31:35.472Z,66.30
2022-08-26T20:34:02.983Z,65.60
2022-08-26T20:36:30.391Z,66.30
2022-08-26T20:38:58.726Z,65.90
2022-08-26T20:41:26.194Z,66.40
2022-08-26T20:43:54.012Z,66.70
2022-08-26T20:46:24.460Z,67.30
2022-08-26T20:48:52.768Z,67.40
2022-08-26T20:51:20.395Z,67.90
2022-08-26T20:53:47.649Z,67.50
2022-08-26T20:56:16.623Z,67.20
2022-08-26T20:58:43.623Z,68.10
2022-08-26T21:01:18.791Z,68.10
2022-08-26T21:03:46.465Z,68.20
2022-08-26T21:06:13.636Z,68.60
2022-08-26T21:08:43.173Z,69.20
2022-08-26T21:11:10.472Z,69.10
2022-08-26T21:13:54.469Z,69.90
2022-08-26T21:16:26.034Z,70.20
2022-08-26T21:18:53.332Z,69.90
2022-08-26T21:21:25.034Z,70.30
2022-08-26T21:23:52.714Z,70.20
2022-08-26T21:26:19.873Z,71.20
2022-08-26T21:28:47.567Z,71.30
2022-08-26T21:31:17.583Z,71.70
2022-08-26T21:33:44.576Z,71.20
2022-08-26T21:36:13.681Z,71.50
2022-08-26T21:38:41.469Z,71.40
2022-08-26T21:41:19.563Z,71.70
2022-08-26T21:43:48.115Z,71.50
2022-08-26T21:46:18.507Z,71.90
2022-08-26T21:48:50.676Z,71.90
2022-08-26T21:51:20.178Z,72.10
2022-08-26T21:53:47.863Z,72.00
2022-08-26T21:56:17.004Z,71.80
2022-08-26T21:58:44.027Z,72.30
2022-08-26T22:01:17.265Z,72.80
2022-08-26T22:03:47.679Z,72.00
2022-08-26T22:06:19.220Z,72.00
2022-08-26T22:08:46.382Z,72.00
2022-08-26T22:11:14.467Z,72.50
2022-08-26T22:13:43.057Z,72.70
2022-08-26T22:16:11.444Z,72.80
2022-08-26T22:18:39.413Z,73.00
2022-08-26T22:21:09.211Z,72.90
2022-08-26T22:23:37.586Z,73.50
2022-08-26T22:26:06.959Z,73.70
2022-08-26T22:28:34.658Z,74.10
2022-08-26T22:31:02.023Z,74.20
2022-08-26T22:33:29.354Z,73.80
2022-08-26T22:35:56.406Z,74.30
2022-08-26T22:38:24.073Z,73.70
2022-08-26T22:40:57.016Z,74.00
2022-08-26T22:43:25.225Z,73.70
2022-08-26T22:45:53.501Z,73.50
2022-08-26T22:48:24.182Z,74.30
2022-08-26T22:50:55.244Z,74.70
2022-08-26T22:53:24.057Z,75.40
2022-08-26T22:55:51.014Z,75.30
2022-08-26T22:58:19.322Z,75.20
2022-08-26T23:00:48.087Z,75.20
2022-08-26T23:03:17.135Z,75.10
2022-08-26T23:05:45.236Z,74.70
2022-08-26T23:08:14.334Z,74.40
2022-08-26T23:10:43.127Z,74.60
2022-08-26T23:13:10.682Z,75.30
2022-08-26T23:15:38.590Z,75.40
2022-08-26T23:18:05.726Z,75.10
2022-08-26T23:20:33.445Z,75.20
2022-08-26T23:23:01.513Z,75.10
2022-08-26T23:25:29.892Z,75.60
2022-08-26T23:27:57.524Z,75.70
2022-08-26T23:30:27.280Z,76.00
2022-08-26T23:32:54.858Z,76.40
2022-08-26T23:35:22.298Z,77.00
2022-08-26T23:37:52.621Z,77.30
2022-08-26T23:40:32.388Z,76.90
2022-08-26T23:43:01.164Z,76.80
2022-08-26T23:45:28.269Z,76.70
2022-08-26T23:47:55.522Z,77.90
2022-08-26T23:50:48.887Z,77.70
2022-08-26T23:53:20.079Z,78.60
2022-08-26T23:55:49.600Z,78.50
2022-08-26T23:58:18.318Z,78.10
